createdAt,value
2017-11-03T00:00:23.829Z,23.35
2017-11-03T00:02:51.304Z,20.60
2017-11-03T00:05:18.769Z,19.50
2017-11-03T00:07:46.253Z,22.70
2017-11-03T00:10:14.464Z,21.23
2017-11-03T00:12:41.918Z,20.58
2017-11-03T00:15:09.381Z,22.05
2017-11-03T00:17:37.586Z,18.52
2017-11-03T00:20:05.167Z,29.17
2017-11-03T00:22:33.412Z,22.83
2017-11-03T00:25:00.896Z,18.48
2017-11-03T00:27:29.130Z,21.02
2017-11-03T00:29:56.609Z,21.08
2017-11-03T00:32:24.085Z,19.20
2017-11-03T00:34:51.668Z,23.05
2017-11-03T00:37:19.147Z,23.55
2017-11-03T00:39:46.604Z,22.45
2017-11-03T00:42:14.073Z,25.83
2017-11-03T00:44:41.860Z,20.05
2017-11-03T00:47:10.080Z,23.52
2017-11-03T00:49:37.549Z,20.98
2017-11-03T00:52:05.015Z,20.20
2017-11-03T00:54:32.485Z,27.42
2017-11-03T00:57:00.087Z,21.67
2017-11-03T00:59:27.610Z,19.30
2017-11-03T01:01:55.817Z,21.83
2017-11-03T01:04:23.283Z,21.92
2017-11-03T01:06:51.513Z,22.73
2017-11-03T01:09:18.997Z,24.15
2017-11-03T01:11:46.470Z,20.73
2017-11-03T01:14:13.916Z,24.63
2017-11-03T01:16:41.381Z,19.95
2017-11-03T01:19:08.829Z,22.95
2017-11-03T01:21:37.060Z,21.87
2017-11-03T01:24:04.512Z,27.75
2017-11-03T01:26:32.746Z,21.55
2017-11-03T01:29:00.198Z,23.55
2017-11-03T01:31:27.674Z,21.48
2017-11-03T01:33:55.928Z,23.95
2017-11-03T01:36:23.375Z,28.15
2017-11-03T01:38:50.852Z,23.08
2017-11-03T01:41:18.302Z,23.00
2017-11-03T01:43:45.749Z,25.10
2017-11-03T01:46:13.238Z,27.65
2017-11-03T01:48:40.680Z,22.13
2017-11-03T01:51:08.890Z,24.15
2017-11-03T01:53:37.119Z,21.83
2017-11-03T01:56:04.596Z,23.62
2017-11-03T01:58:32.050Z,27.70
2017-11-03T02:00:59.825Z,22.20
2017-11-03T02:03:27.275Z,23.55
2017-11-03T02:05:54.717Z,22.67
2017-11-03T02:08:22.180Z,22.52
2017-11-03T02:10:49.630Z,21.45
2017-11-03T02:13:17.092Z,33.72
2017-11-03T02:15:44.548Z,19.62
2017-11-03T02:18:12.778Z,26.67
2017-11-03T02:20:40.236Z,24.05
2017-11-03T02:23:07.704Z,21.67
2017-11-03T02:25:35.912Z,22.70
2017-11-03T02:28:03.375Z,26.52
2017-11-03T02:30:30.823Z,26.62
2017-11-03T02:32:58.615Z,27.15
2017-11-03T02:37:58.556Z,24.02
2017-11-03T02:40:26.026Z,25.80
2017-11-03T02:42:53.486Z,22.92
2017-11-03T02:45:20.949Z,24.37
2017-11-03T02:47:48.407Z,23.35
2017-11-03T02:50:15.892Z,23.50
2017-11-03T02:52:43.359Z,19.95
2017-11-03T02:55:10.808Z,24.37
2017-11-03T02:57:38.268Z,30.98
2017-11-03T03:00:05.732Z,20.90
2017-11-03T03:02:33.188Z,22.33
2017-11-03T03:05:01.412Z,25.37
2017-11-03T03:07:28.880Z,22.98
2017-11-03T03:09:56.341Z,23.42
2017-11-03T03:12:23.804Z,23.12
2017-11-03T03:14:51.275Z,23.50
2017-11-03T03:17:18.733Z,20.90
2017-11-03T03:19:46.192Z,24.92
2017-11-03T03:22:13.643Z,27.77
2017-11-03T03:24:41.857Z,22.42
2017-11-03T03:27:09.313Z,24.67
2017-11-03T03:29:37.529Z,22.52
2017-11-03T03:32:04.969Z,26.65
2017-11-03T03:34:32.446Z,23.17
2017-11-03T03:36:59.956Z,25.48
2017-11-03T03:39:27.407Z,27.83
2017-11-03T03:41:55.618Z,26.15
2017-11-03T03:44:23.086Z,24.58
2017-11-03T03:46:50.543Z,23.05
2017-11-03T03:49:18.773Z,25.85
2017-11-03T03:51:46.248Z,26.80
2017-11-03T03:54:13.797Z,21.00
2017-11-03T03:56:42.063Z,23.73
2017-11-03T03:59:09.496Z,28.23
2017-11-03T04:01:36.975Z,22.87
2017-11-03T04:04:04.523Z,23.08
2017-11-03T04:06:32.076Z,25.08
2017-11-03T04:09:00.141Z,21.05
2017-11-03T04:11:27.591Z,22.45
2017-11-03T04:13:55.060Z,26.90
2017-11-03T04:16:23.248Z,22.20
2017-11-03T04:18:50.734Z,23.45
2017-11-03T04:21:18.161Z,27.55
2017-11-03T04:23:46.382Z,21.05
2017-11-03T04:26:13.836Z,25.65
2017-11-03T04:28:41.317Z,24.73
2017-11-03T04:31:09.544Z,23.65
2017-11-03T04:33:37.009Z,24.45
2017-11-03T04:36:04.482Z,21.83
2017-11-03T04:38:31.911Z,25.33
2017-11-03T04:40:59.953Z,23.33
2017-11-03T04:43:27.396Z,28.08
2017-11-03T04:45:55.647Z,26.48
2017-11-03T04:48:23.096Z,25.85
2017-11-03T04:50:50.560Z,32.10
2017-11-03T04:53:18.023Z,25.42
2017-11-03T04:55:46.251Z,25.23
2017-11-03T04:58:13.712Z,30.95
2017-11-03T05:00:44.940Z,29.30
2017-11-03T05:03:13.167Z,26.08
2017-11-03T05:05:40.613Z,29.63
2017-11-03T05:08:09.200Z,25.88
2017-11-03T05:10:37.408Z,29.45
2017-11-03T05:13:04.915Z,28.00
2017-11-03T05:15:32.368Z,25.20
2017-11-03T05:17:59.860Z,26.95
2017-11-03T05:20:27.299Z,28.33
2017-11-03T05:22:55.721Z,26.40
2017-11-03T05:25:23.192Z,31.67
2017-11-03T05:27:50.636Z,30.52
2017-11-03T05:30:18.904Z,30.83
2017-11-03T05:32:46.336Z,28.23
2017-11-03T05:35:13.791Z,30.52
2017-11-03T05:37:42.005Z,29.48
2017-11-03T05:40:09.461Z,27.20
2017-11-03T05:42:36.897Z,32.30
2017-11-03T05:45:04.413Z,31.05
2017-11-03T05:47:31.864Z,33.65
2017-11-03T05:49:59.302Z,29.12
2017-11-03T05:52:26.772Z,28.83
2017-11-03T05:54:54.323Z,28.40
2017-11-03T05:57:21.784Z,33.42
2017-11-03T05:59:49.993Z,26.95
2017-11-03T06:02:17.448Z,35.17
2017-11-03T06:04:45.675Z,28.00
2017-11-03T06:07:13.162Z,30.27
2017-11-03T06:09:41.388Z,32.50
2017-11-03T06:12:08.924Z,36.22
2017-11-03T06:14:36.491Z,32.20
2017-11-03T06:17:03.953Z,34.47
2017-11-03T06:19:31.414Z,31.70
2017-11-03T06:21:59.623Z,30.20
2017-11-03T06:24:27.083Z,28.08
2017-11-03T06:26:54.531Z,28.20
2017-11-03T06:29:22.927Z,32.78
2017-11-03T06:31:50.385Z,34.15
2017-11-03T06:34:17.846Z,34.95
2017-11-03T06:36:45.391Z,34.05
2017-11-03T06:39:13.596Z,34.40
2017-11-03T06:41:41.064Z,32.40
2017-11-03T06:44:08.557Z,33.53
2017-11-03T06:46:36.026Z,33.20
2017-11-03T06:49:03.478Z,32.25
2017-11-03T06:51:31.696Z,26.95
2017-11-03T06:53:59.144Z,31.17
2017-11-03T06:56:26.629Z,27.98
2017-11-03T06:58:54.100Z,26.65
2017-11-03T07:01:21.564Z,32.10
2017-11-03T07:03:49.007Z,28.45
2017-11-03T07:06:16.452Z,34.30
2017-11-03T07:08:43.947Z,28.02
2017-11-03T07:11:11.390Z,31.25
2017-11-03T07:13:39.766Z,29.12
2017-11-03T07:16:08.009Z,37.42
2017-11-03T07:18:35.477Z,28.52
2017-11-03T07:21:02.917Z,30.35
2017-11-03T07:23:30.392Z,34.58
2017-11-03T07:25:57.842Z,34.28
2017-11-03T07:28:26.055Z,30.77
2017-11-03T07:30:53.520Z,34.17
2017-11-03T07:33:20.972Z,30.10
2017-11-03T07:35:52.834Z,30.33
2017-11-03T07:38:20.320Z,33.28
2017-11-03T07:40:48.568Z,30.75
2017-11-03T07:43:16.053Z,32.15
2017-11-03T07:45:43.496Z,30.37
2017-11-03T07:48:10.925Z,28.87
2017-11-03T07:50:38.398Z,31.90
2017-11-03T07:53:05.922Z,32.67
2017-11-03T07:55:34.112Z,31.30
2017-11-03T07:58:01.581Z,36.70
2017-11-03T08:00:29.017Z,34.08
2017-11-03T08:02:56.516Z,31.02
2017-11-03T08:05:24.733Z,32.88
2017-11-03T08:07:52.204Z,32.03
2017-11-03T08:10:19.664Z,32.00
2017-11-03T08:12:47.131Z,30.77
2017-11-03T08:15:15.505Z,27.70
2017-11-03T08:17:42.950Z,40.30
2017-11-03T08:20:11.184Z,35.70
2017-11-03T08:22:38.653Z,24.73
2017-11-03T08:25:06.237Z,34.92
2017-11-03T08:27:35.176Z,32.55
2017-11-03T08:30:02.700Z,31.52
2017-11-03T08:32:30.151Z,31.15
2017-11-03T08:34:57.625Z,32.05
2017-11-03T08:37:25.102Z,30.88
2017-11-03T08:39:52.558Z,27.60
2017-11-03T08:42:20.079Z,30.83
2017-11-03T08:44:47.541Z,38.00
2017-11-03T08:47:15.012Z,35.22
2017-11-03T08:49:42.476Z,32.45
2017-11-03T08:52:09.947Z,30.58
2017-11-03T08:54:37.423Z,32.85
2017-11-03T08:57:04.925Z,30.30
2017-11-03T08:59:32.395Z,31.97
2017-11-03T09:01:59.881Z,44.50
2017-11-03T09:04:27.374Z,33.80
2017-11-03T09:06:54.860Z,31.57
2017-11-03T09:09:23.095Z,31.27
2017-11-03T09:11:50.557Z,29.23
2017-11-03T09:14:18.045Z,30.40
2017-11-03T09:16:45.504Z,28.07
2017-11-03T09:19:13.740Z,49.90
2017-11-03T09:21:41.208Z,88.07
2017-11-03T09:24:08.693Z,45.37
2017-11-03T09:26:36.147Z,42.13
2017-11-03T09:29:03.627Z,67.50
2017-11-03T09:31:31.087Z,33.70
2017-11-03T09:33:58.609Z,51.37
2017-11-03T09:36:26.052Z,60.73
2017-11-03T09:38:53.525Z,42.70
2017-11-03T09:41:20.992Z,41.63
2017-11-03T09:43:48.457Z,29.83
2017-11-03T09:46:16.504Z,35.33
2017-11-03T09:48:44.735Z,45.10
2017-11-03T09:51:12.209Z,31.63
2017-11-03T09:53:39.692Z,132.87
2017-11-03T09:56:07.127Z,79.13
2017-11-03T09:58:35.355Z,69.13
2017-11-03T10:01:02.819Z,31.03
2017-11-03T10:03:30.286Z,40.90
2017-11-03T10:05:57.740Z,50.00
2017-11-03T10:08:26.882Z,41.30
2017-11-03T10:10:54.333Z,30.40
2017-11-03T10:13:23.081Z,61.30
2017-11-03T10:15:50.550Z,38.40
2017-11-03T10:18:17.992Z,46.87
2017-11-03T10:20:45.477Z,40.73
2017-11-03T10:23:12.958Z,31.60
2017-11-03T10:25:41.180Z,27.00
2017-11-03T10:28:08.620Z,27.40
2017-11-03T10:30:36.100Z,38.80
2017-11-03T10:33:03.532Z,58.33
2017-11-03T10:35:34.959Z,34.73
2017-11-03T10:38:02.433Z,46.57
2017-11-03T10:40:29.924Z,31.00
2017-11-03T10:42:57.425Z,65.47
2017-11-03T10:45:24.885Z,52.97
2017-11-03T10:47:52.394Z,34.33
2017-11-03T10:50:20.624Z,31.70
2017-11-03T10:52:48.108Z,28.63
2017-11-03T10:55:15.568Z,28.20
2017-11-03T10:57:43.025Z,33.40
2017-11-03T11:00:10.580Z,33.33
2017-11-03T11:02:38.788Z,22.93
2017-11-03T11:05:06.376Z,24.40
2017-11-03T11:07:34.572Z,27.17
2017-11-03T11:10:02.044Z,25.60
2017-11-03T11:12:29.500Z,25.80
2017-11-03T11:14:57.752Z,39.90
2017-11-03T11:17:25.207Z,54.57
2017-11-03T11:19:52.733Z,63.03
2017-11-03T11:22:24.924Z,73.60
2017-11-03T11:24:53.772Z,59.67
2017-11-03T11:27:21.235Z,31.77
2017-11-03T11:29:48.683Z,25.70
2017-11-03T11:32:16.927Z,37.40
2017-11-03T11:34:44.384Z,70.63
2017-11-03T11:37:11.842Z,59.97
2017-11-03T11:39:39.327Z,45.03
2017-11-03T11:42:06.768Z,53.83
2017-11-03T11:44:34.989Z,39.20
2017-11-03T11:47:02.565Z,24.73
2017-11-03T11:49:30.778Z,25.47
2017-11-03T11:51:58.214Z,23.83
2017-11-03T11:54:26.446Z,25.17
2017-11-03T11:56:53.997Z,23.67
2017-11-03T11:59:22.219Z,25.13
2017-11-03T12:01:49.680Z,24.53
2017-11-03T12:04:17.141Z,26.60
2017-11-03T12:06:44.632Z,28.23
2017-11-03T12:09:12.079Z,24.37
2017-11-03T12:11:39.575Z,26.67
2017-11-03T12:14:07.020Z,27.03
2017-11-03T12:16:35.244Z,27.23
2017-11-03T12:19:03.095Z,26.90
2017-11-03T12:21:31.334Z,26.10
2017-11-03T12:23:58.785Z,31.83
2017-11-03T12:26:26.252Z,25.13
2017-11-03T12:28:54.553Z,25.30
2017-11-03T12:31:22.774Z,24.90
2017-11-03T12:33:50.233Z,49.27
2017-11-03T12:36:17.716Z,27.37
2017-11-03T12:38:45.175Z,27.60
2017-11-03T12:41:12.650Z,28.47
2017-11-03T12:43:40.123Z,35.07
2017-11-03T12:46:07.568Z,26.90
2017-11-03T12:48:35.907Z,31.50
2017-11-03T12:51:03.363Z,66.43
2017-11-03T12:53:30.841Z,33.13
2017-11-03T12:55:58.327Z,27.50
2017-11-03T12:58:25.797Z,27.57
2017-11-03T13:00:53.266Z,19.83
2017-11-03T13:03:20.845Z,21.70
2017-11-03T13:05:49.074Z,21.80
2017-11-03T13:08:16.518Z,21.80
2017-11-03T13:10:48.399Z,22.40
2017-11-03T13:13:19.355Z,62.80
2017-11-03T13:15:46.796Z,32.60
2017-11-03T13:18:15.028Z,37.93
2017-11-03T13:20:42.485Z,26.90
2017-11-03T13:23:09.954Z,24.80
2017-11-03T13:25:37.445Z,20.33
2017-11-03T13:28:04.889Z,27.97
2017-11-03T13:30:33.113Z,24.27
2017-11-03T13:33:00.582Z,35.23
2017-11-03T13:35:28.024Z,55.40
2017-11-03T13:37:56.256Z,47.13
2017-11-03T13:40:27.721Z,76.73
2017-11-03T13:42:55.199Z,76.10
2017-11-03T13:45:22.660Z,82.50
2017-11-03T13:47:50.102Z,74.30
2017-11-03T13:50:18.338Z,27.40
2017-11-03T13:52:45.808Z,24.43
2017-11-03T13:55:13.286Z,25.40
2017-11-03T13:57:40.730Z,21.80
2017-11-03T14:00:08.946Z,22.30
2017-11-03T14:02:36.434Z,23.90
2017-11-03T14:05:03.916Z,32.90
2017-11-03T14:07:31.385Z,26.37
2017-11-03T14:09:58.840Z,37.53
2017-11-03T14:12:26.292Z,49.57
2017-11-03T14:14:54.516Z,89.53
2017-11-03T14:17:22.041Z,68.90
2017-11-03T14:19:49.519Z,83.33
2017-11-03T14:22:16.973Z,111.67
2017-11-03T14:24:44.431Z,79.50
2017-11-03T14:27:11.875Z,61.97
2017-11-03T14:29:39.344Z,43.83
2017-11-03T14:32:07.545Z,31.23
2017-11-03T14:34:35.038Z,29.90
2017-11-03T14:37:02.483Z,25.30
2017-11-03T14:39:30.744Z,26.17
2017-11-03T14:41:58.191Z,22.60
2017-11-03T14:44:25.669Z,42.73
2017-11-03T14:46:53.224Z,30.97
2017-11-03T14:49:21.445Z,35.80
2017-11-03T14:51:48.921Z,20.90
2017-11-03T14:54:16.368Z,23.70
2017-11-03T14:56:43.863Z,23.33
2017-11-03T14:59:11.328Z,18.23
2017-11-03T15:01:38.808Z,23.90
2017-11-03T15:04:06.264Z,18.37
2017-11-03T15:06:33.709Z,20.50
2017-11-03T15:09:01.968Z,20.60
2017-11-03T15:11:29.396Z,29.07
2017-11-03T15:13:56.874Z,28.13
2017-11-03T15:16:24.353Z,27.80
2017-11-03T15:18:51.844Z,24.70
2017-11-03T15:21:19.293Z,23.50
2017-11-03T15:23:46.799Z,28.83
2017-11-03T15:26:15.177Z,24.73
2017-11-03T15:28:43.373Z,30.57
2017-11-03T15:31:10.840Z,27.63
2017-11-03T15:33:38.283Z,25.00
2017-11-03T15:36:05.744Z,28.27
2017-11-03T15:38:33.212Z,25.67
2017-11-03T15:41:00.672Z,26.80
2017-11-03T15:43:28.820Z,21.40
2017-11-03T15:45:56.277Z,27.70
2017-11-03T15:48:24.535Z,27.73
2017-11-03T15:50:51.978Z,26.13
2017-11-03T15:53:19.448Z,24.43
2017-11-03T15:55:46.906Z,24.92
2017-11-03T15:58:15.128Z,26.63
2017-11-03T16:00:42.591Z,26.70
2017-11-03T16:03:10.109Z,24.65
2017-11-03T16:05:37.588Z,25.95
2017-11-03T16:08:05.075Z,22.50
2017-11-03T16:10:32.546Z,23.60
2017-11-03T16:13:00.014Z,26.83
2017-11-03T16:15:27.476Z,25.63
2017-11-03T16:17:55.815Z,25.65
2017-11-03T16:20:28.105Z,24.37
2017-11-03T16:22:56.336Z,30.50
2017-11-03T16:25:23.811Z,26.52
2017-11-03T16:27:51.274Z,31.25
2017-11-03T16:30:18.746Z,33.22
2017-11-03T16:32:46.318Z,30.75
2017-11-03T16:35:13.779Z,29.63
2017-11-03T16:37:41.267Z,31.65
2017-11-03T16:40:08.772Z,30.35
2017-11-03T16:42:36.383Z,29.48
2017-11-03T16:45:03.841Z,29.85
2017-11-03T16:47:31.287Z,32.33
2017-11-03T16:49:58.783Z,28.35
2017-11-03T16:52:26.225Z,30.35
2017-11-03T16:54:53.701Z,27.52
2017-11-03T16:57:21.208Z,29.73
2017-11-03T16:59:48.688Z,34.03
2017-11-03T17:02:16.148Z,30.90
2017-11-03T17:04:43.654Z,30.08
2017-11-03T17:07:11.124Z,29.20
2017-11-03T17:09:38.616Z,31.58
2017-11-03T17:12:06.844Z,28.35
2017-11-03T17:14:35.161Z,26.87
2017-11-03T17:17:02.658Z,26.40
2017-11-03T17:19:30.091Z,28.25
2017-11-03T17:21:57.571Z,31.55
2017-11-03T17:24:25.016Z,31.25
2017-11-03T17:26:53.253Z,31.87
2017-11-03T17:29:20.715Z,30.00
2017-11-03T17:31:48.188Z,29.42
2017-11-03T17:34:15.651Z,31.02
2017-11-03T17:36:43.166Z,33.25
2017-11-03T17:39:10.660Z,29.75
2017-11-03T17:41:38.095Z,32.17
2017-11-03T17:44:05.655Z,32.80
2017-11-03T17:46:33.875Z,29.95
2017-11-03T17:49:01.340Z,34.05
2017-11-03T17:51:28.801Z,31.05
2017-11-03T17:53:56.277Z,29.10
2017-11-03T17:56:23.760Z,29.02
2017-11-03T17:58:51.208Z,30.08
2017-11-03T18:01:18.717Z,36.17
2017-11-03T18:03:46.173Z,34.47
2017-11-03T18:06:13.679Z,27.37
2017-11-03T18:08:41.122Z,29.80
2017-11-03T18:11:08.600Z,30.95
2017-11-03T18:13:36.140Z,30.88
2017-11-03T18:16:08.416Z,29.10
2017-11-03T18:18:39.973Z,32.17
2017-11-03T18:21:07.449Z,27.95
2017-11-03T18:23:34.929Z,31.67
2017-11-03T18:26:02.392Z,35.25
2017-11-03T18:28:29.864Z,31.48
2017-11-03T18:30:58.088Z,29.77
2017-11-03T18:33:26.342Z,29.85
2017-11-03T18:35:57.508Z,32.58
2017-11-03T18:38:24.994Z,30.85
2017-11-03T18:40:52.508Z,30.65
2017-11-03T18:43:24.180Z,27.30
2017-11-03T18:45:51.620Z,29.98
2017-11-03T18:48:19.096Z,28.95
2017-11-03T18:50:46.681Z,27.90
2017-11-03T18:53:14.193Z,28.87
2017-11-03T18:55:41.656Z,30.15
2017-11-03T18:58:10.758Z,23.38
2017-11-03T19:00:39.005Z,29.08
2017-11-03T19:03:07.925Z,27.60
2017-11-03T19:05:35.425Z,31.25
2017-11-03T19:08:05.594Z,26.92
2017-11-03T19:10:34.770Z,29.85
2017-11-03T19:13:03.445Z,32.58
2017-11-03T19:15:33.524Z,29.87
2017-11-03T19:18:01.776Z,32.80
2017-11-03T19:20:30.242Z,26.80
2017-11-03T19:22:59.953Z,34.70
2017-11-03T19:25:27.396Z,28.42
2017-11-03T19:27:56.572Z,26.75
2017-11-03T19:30:24.064Z,24.95
2017-11-03T19:32:54.969Z,32.35
2017-11-03T19:35:24.190Z,28.25
2017-11-03T19:37:52.830Z,28.85
2017-11-03T19:40:21.113Z,26.87
2017-11-03T19:42:50.645Z,26.58
2017-11-03T19:45:18.096Z,32.45
2017-11-03T19:47:45.556Z,28.10
2017-11-03T19:50:13.978Z,28.25
2017-11-03T19:52:41.440Z,28.10
2017-11-03T19:55:09.553Z,28.08
2017-11-03T19:57:37.016Z,28.67
2017-11-03T20:00:05.361Z,28.25
2017-11-03T20:02:32.840Z,27.17
2017-11-03T20:05:00.298Z,25.58
2017-11-03T20:07:27.784Z,26.90
2017-11-03T20:09:57.396Z,30.67
2017-11-03T20:12:24.895Z,27.02
2017-11-03T20:14:54.377Z,27.23
2017-11-03T20:17:23.197Z,26.40
2017-11-03T20:19:52.530Z,30.52
2017-11-03T20:22:19.985Z,28.75
2017-11-03T20:24:49.305Z,30.90
2017-11-03T20:27:17.603Z,22.77
2017-11-03T20:29:45.872Z,25.17
2017-11-03T20:32:16.601Z,30.02
2017-11-03T20:34:46.009Z,23.90
2017-11-03T20:37:15.759Z,25.10
2017-11-03T20:39:44.790Z,27.42
2017-11-03T20:42:14.437Z,24.42
2017-11-03T20:44:43.285Z,28.75
2017-11-03T20:47:10.842Z,29.40
2017-11-03T20:49:40.050Z,27.75
2017-11-03T20:52:08.928Z,25.35
2017-11-03T20:54:36.546Z,28.85
2017-11-03T20:57:05.802Z,27.02
2017-11-03T20:59:33.256Z,24.90
2017-11-03T21:02:03.063Z,28.90
2017-11-03T21:04:30.592Z,31.95
2017-11-03T21:07:01.636Z,28.35
2017-11-03T21:09:29.064Z,26.12
2017-11-03T21:11:58.485Z,28.67
2017-11-03T21:14:26.701Z,25.42
2017-11-03T21:16:54.745Z,27.20
2017-11-03T21:19:22.404Z,26.90
2017-11-03T21:21:50.610Z,23.48
2017-11-03T21:24:18.095Z,28.10
2017-11-03T21:26:47.302Z,26.85
2017-11-03T21:29:14.931Z,26.55
2017-11-03T21:31:44.454Z,29.35
2017-11-03T21:34:14.858Z,25.60
2017-11-03T21:36:42.285Z,28.20
2017-11-03T21:39:10.317Z,30.98
2017-11-03T21:41:37.772Z,26.45
2017-11-03T21:44:06.560Z,24.90
2017-11-03T21:46:38.740Z,25.50
2017-11-03T21:49:07.661Z,29.98
2017-11-03T21:51:35.786Z,30.02
2017-11-03T21:54:06.675Z,31.30
2017-11-03T21:56:34.133Z,24.55
2017-11-03T21:59:02.364Z,24.77
2017-11-03T22:01:31.683Z,24.05
2017-11-03T22:04:00.083Z,28.70
2017-11-03T22:06:27.540Z,25.33
2017-11-03T22:08:55.904Z,29.65
2017-11-03T22:11:24.214Z,27.40
2017-11-03T22:13:52.612Z,22.80
2017-11-03T22:16:20.057Z,27.58
2017-11-03T22:18:49.227Z,27.90
2017-11-03T22:21:16.695Z,23.25
2017-11-03T22:23:45.037Z,28.55
2017-11-03T22:26:12.489Z,26.27
2017-11-03T22:28:41.862Z,24.27
2017-11-03T22:31:10.053Z,32.83
2017-11-03T22:33:38.504Z,27.37
2017-11-03T22:36:05.988Z,28.60
2017-11-03T22:38:34.488Z,23.40
2017-11-03T22:41:04.059Z,28.73
2017-11-03T22:43:31.484Z,26.12
2017-11-03T22:45:58.959Z,25.25
2017-11-03T22:48:27.365Z,28.65
2017-11-03T22:50:56.503Z,26.77
2017-11-03T22:53:24.043Z,28.17
2017-11-03T22:55:53.697Z,24.58
2017-11-03T22:58:21.992Z,27.85
2017-11-03T23:00:50.295Z,33.33
2017-11-03T23:03:18.528Z,31.58
2017-11-03T23:05:48.152Z,27.90
2017-11-03T23:08:17.605Z,31.80
2017-11-03T23:10:45.824Z,35.67
2017-11-03T23:13:13.294Z,30.15
2017-11-03T23:15:42.667Z,26.87
2017-11-03T23:18:10.097Z,31.52
2017-11-03T23:20:37.548Z,33.67
2017-11-03T23:23:05.766Z,28.77
2017-11-03T23:25:33.229Z,29.75
2017-11-03T23:28:00.676Z,28.40
2017-11-03T23:30:29.131Z,27.08
2017-11-03T23:32:56.577Z,29.65
2017-11-03T23:35:24.991Z,30.10
2017-11-03T23:37:52.433Z,28.87
2017-11-03T23:40:20.751Z,33.50
2017-11-03T23:42:48.944Z,29.23
2017-11-03T23:45:17.619Z,36.22
2017-11-03T23:47:47.300Z,28.17
2017-11-03T23:50:16.526Z,33.53
2017-11-03T23:52:45.412Z,29.52
2017-11-03T23:55:13.792Z,32.88
2017-11-03T23:57:41.249Z,27.65
